Time;durP1;ratioP1;P1;durP2;ratioP2;P2;SDS_P1;SDS_P2;PMS_P1;PMS_P2;Temp;Humidity;BMP_temperature;BMP_pressure;BME280_temperature;BME280_humidity;BME280_pressure;Samples;Min_cycle;Max_cycle;Signal;HPM_P1;HPM_P2
2022/06/27 00:01:01;;;;;;;4.55;1.60;;;19.30;99.90;;;;;;4992392;28;20051;-79
2022/06/27 00:03:28;;;;;;;3.22;1.88;;;19.40;99.90;;;;;;4992276;28;20043;-78
2022/06/27 00:05:56;;;;;;;2.58;1.67;;;19.50;99.90;;;;;;4993768;28;20042;-78
2022/06/27 00:08:23;;;;;;;3.53;1.70;;;19.20;99.90;;;;;;5005597;28;20073;-78
2022/06/27 00:10:50;;;;;;;2.80;1.58;;;19.30;99.90;;;;;;5007302;28;20085;-81
2022/06/27 00:13:17;;;;;;;6.00;1.55;;;19.30;99.90;;;;;;5005379;28;20085;-78
2022/06/27 00:15:43;;;;;;;3.72;1.40;;;19.40;99.90;;;;;;5004207;28;20084;-79
2022/06/27 00:18:10;;;;;;;1.95;1.45;;;19.30;99.90;;;;;;5005875;28;20129;-78
2022/06/27 00:20:37;;;;;;;2.28;1.35;;;19.10;99.90;;;;;;5003126;28;20085;-78
2022/06/27 00:23:04;;;;;;;1.48;1.27;;;19.10;99.90;;;;;;5004118;28;20110;-79
2022/06/27 00:25:30;;;;;;;4.32;2.58;;;19.10;99.90;;;;;;5007920;28;20069;-81
2022/06/27 00:27:57;;;;;;;3.67;1.85;;;19.10;99.90;;;;;;5005704;28;20073;-79
2022/06/27 00:30:24;;;;;;;4.47;1.90;;;19.10;99.90;;;;;;5009948;28;20067;-79
2022/06/27 00:32:50;;;;;;;4.05;2.13;;;19.10;99.90;;;;;;5023131;28;20053;-78
2022/06/27 00:35:17;;;;;;;4.78;2.30;;;19.30;99.90;;;;;;5009342;28;20052;-79
2022/06/27 00:37:44;;;;;;;4.22;2.15;;;19.20;99.90;;;;;;5008729;28;20422;-77
2022/06/27 00:40:11;;;;;;;4.57;2.17;;;19.40;99.90;;;;;;5007751;28;20053;-79
2022/06/27 00:42:37;;;;;;;3.03;2.15;;;19.30;99.90;;;;;;5013243;28;20050;-81
2022/06/27 00:45:06;;;;;;;5.20;2.20;;;19.40;99.90;;;;;;5010772;28;20050;-79
2022/06/27 00:47:32;;;;;;;3.38;2.30;;;19.50;99.90;;;;;;5010469;28;20060;-79
2022/06/27 00:49:59;;;;;;;3.15;2.40;;;19.50;99.90;;;;;;5006304;28;20066;-79
2022/06/27 00:52:27;;;;;;;5.57;2.00;;;19.40;99.90;;;;;;5006881;28;20579;-80
2022/06/27 00:54:54;;;;;;;5.72;2.50;;;19.40;99.90;;;;;;5009157;28;20517;-78
2022/06/27 00:57:20;;;;;;;5.07;2.72;;;19.50;99.90;;;;;;5007395;28;20057;-78
2022/06/27 00:59:47;;;;;;;3.45;2.70;;;19.60;99.90;;;;;;5007260;28;20478;-78
2022/06/27 01:02:14;;;;;;;4.18;2.90;;;19.50;99.90;;;;;;5009170;28;20050;-79
2022/06/27 01:04:41;;;;;;;7.72;2.60;;;19.50;99.90;;;;;;5008258;28;20060;-78
2022/06/27 01:07:09;;;;;;;4.25;2.70;;;19.50;99.90;;;;;;5007340;28;20109;-79
2022/06/27 01:09:42;;;;;;;6.70;2.60;;;19.60;99.90;;;;;;5008934;28;20050;-78
2022/06/27 01:12:09;;;;;;;4.70;2.92;;;19.50;99.90;;;;;;5006278;28;20046;-78
2022/06/27 01:14:36;;;;;;;3.60;2.38;;;19.60;99.90;;;;;;5009160;28;20046;-78
2022/06/27 01:17:03;;;;;;;5.50;2.10;;;19.50;99.90;;;;;;5008305;28;20495;-78
2022/06/27 01:19:30;;;;;;;6.00;3.00;;;19.50;99.90;;;;;;5031656;28;20416;-79
2022/06/27 01:21:58;;;;;;;6.30;3.30;;;19.50;99.90;;;;;;5007932;28;20050;-78
2022/06/27 01:24:27;;;;;;;6.38;4.22;;;19.50;99.90;;;;;;5007489;28;20511;-78
2022/06/27 01:26:54;;;;;;;4.82;3.45;;;19.40;99.90;;;;;;5006428;28;20050;-79
2022/06/27 01:29:20;;;;;;;4.43;3.25;;;19.50;99.90;;;;;;5008431;28;20125;-78
2022/06/27 01:31:48;;;;;;;6.70;3.20;;;19.50;99.90;;;;;;5005297;28;20061;-79
2022/06/27 01:34:16;;;;;;;6.03;2.85;;;19.50;99.90;;;;;;5008807;28;20423;-79
2022/06/27 01:36:45;;;;;;;9.50;3.20;;;19.50;99.90;;;;;;5010410;28;20045;-79
2022/06/27 01:39:12;;;;;;;6.38;3.88;;;19.50;99.90;;;;;;5008325;28;20052;-78
2022/06/27 01:41:41;;;;;;;3.53;3.22;;;19.60;99.90;;;;;;5006945;28;20049;-79
2022/06/27 01:44:09;;;;;;;4.68;3.03;;;19.60;99.90;;;;;;5008208;28;20054;-79
2022/06/27 01:46:43;;;;;;;3.22;2.50;;;19.50;99.90;;;;;;5006697;28;20054;-78
2022/06/27 01:49:12;;;;;;;3.75;3.15;;;19.50;99.90;;;;;;5005115;28;20051;-77
2022/06/27 01:51:40;;;;;;;5.72;3.65;;;19.50;99.90;;;;;;5004792;28;20060;-76
2022/06/27 01:54:09;;;;;;;5.07;3.83;;;19.40;99.90;;;;;;5009940;28;20046;-78
2022/06/27 01:56:36;;;;;;;11.98;4.35;;;19.40;99.90;;;;;;5009589;28;20412;-78
2022/06/27 01:59:03;;;;;;;7.95;3.50;;;19.40;99.90;;;;;;5002674;28;20054;-78
2022/06/27 02:01:30;;;;;;;4.32;3.47;;;19.40;99.90;;;;;;5008042;28;20107;-79
2022/06/27 02:03:59;;;;;;;5.00;3.35;;;19.50;99.90;;;;;;5012299;28;20100;-79
2022/06/27 02:06:28;;;;;;;5.30;3.03;;;19.40;99.90;;;;;;5005315;28;20050;-78
2022/06/27 02:08:56;;;;;;;4.93;2.80;;;19.40;99.90;;;;;;5013792;28;20046;-79
2022/06/27 02:11:24;;;;;;;4.47;2.33;;;19.40;99.90;;;;;;5020112;28;20074;-79
2022/06/27 02:13:52;;;;;;;5.60;2.33;;;19.30;99.90;;;;;;5010553;28;20046;-79
2022/06/27 02:16:19;;;;;;;3.10;2.33;;;19.30;99.90;;;;;;5023926;28;20077;-79
2022/06/27 02:18:48;;;;;;;2.58;2.10;;;19.30;99.90;;;;;;5011735;28;20054;-78
2022/06/27 02:21:19;;;;;;;6.32;2.22;;;19.30;99.90;;;;;;5008851;28;20085;-78
2022/06/27 02:23:46;;;;;;;3.67;2.55;;;19.20;99.90;;;;;;5004771;28;20053;-79
2022/06/27 02:26:15;;;;;;;2.67;1.80;;;19.20;99.90;;;;;;5006469;28;20141;-79
2022/06/27 02:28:43;;;;;;;5.68;1.90;;;19.30;99.90;;;;;;5006511;28;20114;-79
2022/06/27 02:31:10;;;;;;;4.13;1.65;;;19.30;99.90;;;;;;5008656;28;20500;-78
2022/06/27 02:33:40;;;;;;;3.08;1.17;;;19.30;99.90;;;;;;5005766;28;20112;-78
2022/06/27 02:36:13;;;;;;;3.95;1.73;;;19.20;99.90;;;;;;5009229;28;20046;-78
2022/06/27 02:38:41;;;;;;;4.38;1.40;;;19.30;99.90;;;;;;5004822;28;20182;-79
2022/06/27 02:41:12;;;;;;;3.05;1.45;;;19.20;99.90;;;;;;5013787;28;20073;-79
2022/06/27 02:43:41;;;;;;;2.03;1.20;;;19.20;99.90;;;;;;5017469;28;20050;-78
2022/06/27 02:46:08;;;;;;;1.58;0.73;;;19.30;99.90;;;;;;5019318;28;20121;-79
2022/06/27 02:48:36;;;;;;;2.55;0.60;;;19.20;99.90;;;;;;5016591;28;20050;-79
2022/06/27 02:51:16;;;;;;;2.50;1.20;;;19.30;99.90;;;;;;5011966;28;20046;-79
2022/06/27 02:53:49;;;;;;;1.33;1.00;;;19.30;99.90;;;;;;5014509;28;20133;-80
2022/06/27 02:56:22;;;;;;;4.78;3.50;;;19.20;99.90;;;;;;5013939;28;20274;-77
2022/06/27 02:59:03;;;;;;;5.78;4.85;;;19.10;99.90;;;;;;5013213;28;20107;-79
2022/06/27 03:01:32;;;;;;;6.90;6.20;;;19.10;99.90;;;;;;5017951;28;20042;-78
2022/06/27 03:04:00;;;;;;;6.90;6.10;;;19.10;99.90;;;;;;5015704;28;20130;-79
2022/06/27 03:06:29;;;;;;;7.57;5.32;;;19.10;99.90;;;;;;4997119;28;20069;-79
2022/06/27 03:08:55;;;;;;;6.53;5.15;;;19.20;99.90;;;;;;5002873;28;20047;-79
2022/06/27 03:11:24;;;;;;;6.20;5.28;;;19.10;99.90;;;;;;4995587;28;20081;-79
2022/06/27 03:13:52;;;;;;;8.30;6.72;;;19.10;99.90;;;;;;4996597;28;20046;-79
2022/06/27 03:16:21;;;;;;;6.38;5.13;;;19.10;99.90;;;;;;5006090;28;20046;-81
2022/06/27 03:18:49;;;;;;;5.47;4.40;;;19.10;99.90;;;;;;5013877;28;20043;-78
2022/06/27 03:21:17;;;;;;;8.43;5.43;;;19.10;99.90;;;;;;5015372;28;20045;-81
2022/06/27 03:23:48;;;;;;;5.28;4.70;;;19.10;99.90;;;;;;5004381;28;20100;-79
2022/06/27 03:26:17;;;;;;;5.50;4.80;;;19.00;99.90;;;;;;5004527;28;20077;-78
2022/06/27 03:28:45;;;;;;;5.13;4.50;;;18.90;99.90;;;;;;5002560;28;20042;-79
2022/06/27 03:31:11;;;;;;;5.10;4.50;;;18.90;99.90;;;;;;5003880;28;20065;-79
2022/06/27 03:33:39;;;;;;;6.53;4.20;;;19.00;99.90;;;;;;5009313;28;20338;-79
2022/06/27 03:36:06;;;;;;;5.30;4.82;;;19.00;99.90;;;;;;5007160;28;20054;-79
2022/06/27 03:38:33;;;;;;;4.72;4.30;;;19.00;99.90;;;;;;5005204;28;20046;-79
2022/06/27 03:41:00;;;;;;;6.68;4.03;;;19.00;99.90;;;;;;5002988;28;20056;-78
2022/06/27 03:43:28;;;;;;;4.30;3.90;;;19.00;99.90;;;;;;5003246;28;20399;-79
2022/06/27 03:45:55;;;;;;;4.30;3.90;;;18.90;99.90;;;;;;5004220;28;20066;-79
2022/06/27 03:51:07;;;;;;;5.55;3.03;;;19.00;99.90;;;;;;4995615;28;20066;-81
2022/06/27 03:53:34;;;;;;;3.38;3.08;;;19.00;99.90;;;;;;5005786;28;20057;-79
2022/06/27 03:56:01;;;;;;;3.20;2.90;;;18.90;99.90;;;;;;5005971;28;20042;-79
2022/06/27 03:58:28;;;;;;;3.88;3.40;;;18.90;99.90;;;;;;5005875;28;20073;-80
2022/06/27 04:00:55;;;;;;;3.15;2.80;;;19.00;99.90;;;;;;5005893;28;20064;-79
2022/06/27 04:03:21;;;;;;;3.97;2.92;;;19.00;99.90;;;;;;5009187;28;20108;-79
2022/06/27 04:05:48;;;;;;;4.35;2.70;;;19.00;99.90;;;;;;5009297;28;20085;-81
2022/06/27 04:08:15;;;;;;;3.38;2.55;;;19.00;99.90;;;;;;5008148;28;20085;-78
2022/06/27 04:10:42;;;;;;;3.35;3.05;;;19.10;99.90;;;;;;5007938;28;20049;-79
2022/06/27 04:13:08;;;;;;;3.97;2.40;;;19.10;99.90;;;;;;5016220;28;20042;-78
2022/06/27 04:15:35;;;;;;;3.85;3.17;;;19.00;99.90;;;;;;5006942;28;20069;-79
2022/06/27 04:18:02;;;;;;;4.43;3.42;;;19.10;99.90;;;;;;4999167;28;20460;-79
2022/06/27 04:20:29;;;;;;;5.68;3.53;;;19.00;99.90;;;;;;5005662;28;20306;-78
2022/06/27 04:22:56;;;;;;;3.47;2.90;;;18.90;99.90;;;;;;5005785;28;20057;-78
2022/06/27 04:25:23;;;;;;;3.33;2.92;;;18.90;99.90;;;;;;4998951;28;20054;-79
2022/06/27 04:27:50;;;;;;;4.03;2.55;;;18.80;99.90;;;;;;5010784;28;20136;-77
2022/06/27 04:30:17;;;;;;;4.05;3.10;;;18.80;99.90;;;;;;5012609;28;20070;-78
2022/06/27 04:32:45;;;;;;;3.88;2.38;;;18.90;99.90;;;;;;5008452;28;20562;-79
2022/06/27 04:35:12;;;;;;;2.53;2.33;;;18.90;99.90;;;;;;5008446;28;20081;-77
2022/06/27 04:37:42;;;;;;;2.58;2.22;;;18.90;99.90;;;;;;5006609;28;20046;-78
2022/06/27 04:40:10;;;;;;;;;;;19.00;99.90;;;;;;5006672;28;20056;-79
2022/06/27 04:42:37;;;;;;;4.57;3.40;;;19.00;99.90;;;;;;5009162;28;19921;-79
2022/06/27 04:45:11;;;;;;;4.88;2.80;;;18.90;99.90;;;;;;5007248;28;20084;-78
2022/06/27 04:47:39;;;;;;;3.65;2.28;;;18.90;99.90;;;;;;5011334;28;20053;-77
2022/06/27 04:50:11;;;;;;;5.85;2.83;;;19.00;99.90;;;;;;5011934;28;20050;-79
2022/06/27 04:52:39;;;;;;;4.60;2.47;;;19.00;99.90;;;;;;5021319;28;20046;-79
2022/06/27 04:55:08;;;;;;;2.97;1.80;;;19.00;99.90;;;;;;5009054;28;20133;-78
2022/06/27 04:57:37;;;;;;;4.33;2.27;;;19.10;99.90;;;;;;5007405;28;20046;-77
2022/06/27 05:00:07;;;;;;;3.55;1.83;;;19.10;99.90;;;;;;5013656;28;20060;-77
2022/06/27 05:02:35;;;;;;;2.83;1.83;;;19.10;99.90;;;;;;5006223;28;20148;-77
2022/06/27 05:05:03;;;;;;;3.92;1.92;;;19.20;99.90;;;;;;5004928;28;20050;-79
2022/06/27 05:07:30;;;;;;;2.90;2.35;;;19.20;99.90;;;;;;5002158;28;20583;-78
2022/06/27 05:09:57;;;;;;;5.50;2.00;;;19.20;99.90;;;;;;5003380;28;20052;-77
2022/06/27 05:12:25;;;;;;;3.38;2.10;;;19.20;99.90;;;;;;5005469;28;20149;-79
2022/06/27 05:14:53;;;;;;;3.67;1.88;;;19.30;99.90;;;;;;5002709;28;20101;-79
2022/06/27 05:17:21;;;;;;;4.10;2.42;;;19.40;99.90;;;;;;5003656;28;20477;-79
2022/06/27 05:19:48;;;;;;;3.10;2.75;;;19.40;99.90;;;;;;5003733;28;20053;-80
2022/06/27 05:22:15;;;;;;;7.05;2.53;;;19.40;99.90;;;;;;5008235;28;20045;-77
2022/06/27 05:24:42;;;;;;;4.07;3.33;;;19.50;99.90;;;;;;5006902;28;20049;-79
2022/06/27 05:27:13;;;;;;;10.05;8.27;;;19.60;99.90;;;;;;5003019;28;20054;-80
2022/06/27 05:29:39;;;;;;;6.90;5.75;;;19.60;99.90;;;;;;5006027;28;20057;-76
2022/06/27 05:32:07;;;;;;;10.73;6.15;;;19.60;99.90;;;;;;5004475;28;20454;-77
2022/06/27 05:34:33;;;;;;;5.43;4.05;;;19.60;99.90;;;;;;5005388;28;20046;-78
2022/06/27 05:37:00;;;;;;;6.03;3.35;;;19.60;99.90;;;;;;5004382;28;20050;-77
2022/06/27 05:39:27;;;;;;;12.20;6.88;;;19.50;99.90;;;;;;5004948;28;20048;-77
2022/06/27 05:41:54;;;;;;;6.50;5.90;;;19.40;99.90;;;;;;5006331;28;20053;-79
2022/06/27 05:44:20;;;;;;;7.35;5.20;;;19.30;99.90;;;;;;5020325;28;20085;-78
2022/06/27 05:46:48;;;;;;;9.60;6.82;;;19.20;99.90;;;;;;5003580;28;20053;-78
2022/06/27 05:49:15;;;;;;;6.45;5.85;;;19.10;99.90;;;;;;5005346;28;20529;-77
2022/06/27 05:51:42;;;;;;;7.30;6.18;;;19.10;99.90;;;;;;4994285;28;20046;-77
2022/06/27 05:54:09;;;;;;;8.68;6.80;;;19.20;99.90;;;;;;4994073;28;20089;-78
2022/06/27 05:56:36;;;;;;;9.65;6.95;;;19.30;99.90;;;;;;4998019;28;20484;-77
2022/06/27 05:59:05;;;;;;;9.80;8.05;;;19.40;99.90;;;;;;5009501;28;20133;-77
2022/06/27 06:01:33;;;;;;;11.38;8.43;;;19.40;99.90;;;;;;5004584;28;20050;-77
2022/06/27 06:04:00;;;;;;;9.98;8.13;;;19.60;99.90;;;;;;5010041;28;20050;-75
2022/06/27 06:06:28;;;;;;;8.45;7.30;;;19.70;99.90;;;;;;5004918;28;20065;-77
2022/06/27 06:08:55;;;;;;;9.25;6.65;;;19.90;99.90;;;;;;5005992;28;20058;-79
2022/06/27 06:11:22;;;;;;;7.75;6.72;;;20.00;99.90;;;;;;5005740;28;20053;-77
2022/06/27 06:13:50;;;;;;;9.10;5.88;;;20.20;99.90;;;;;;5003598;28;20188;-78
2022/06/27 06:16:19;;;;;;;7.22;5.95;;;20.30;99.90;;;;;;5009592;28;20129;-78
2022/06/27 06:18:52;;;;;;;9.15;6.90;;;20.30;99.90;;;;;;5004885;28;20053;-78
2022/06/27 06:21:20;;;;;;;9.32;7.50;;;20.20;99.90;;;;;;5019235;28;20132;-79
2022/06/27 06:23:47;;;;;;;9.10;6.88;;;20.20;99.90;;;;;;5000838;28;20060;-78
2022/06/27 06:26:17;;;;;;;6.93;6.22;;;20.20;99.90;;;;;;5004161;28;20053;-78
2022/06/27 06:28:45;;;;;;;8.77;5.38;;;20.10;99.90;;;;;;5001362;28;20086;-78
2022/06/27 06:31:21;;;;;;;8.52;5.60;;;20.00;99.90;;;;;;5010073;28;20457;-78
2022/06/27 06:33:53;;;;;;;7.15;5.30;;;20.10;99.90;;;;;;5004094;28;20042;-78
2022/06/27 06:36:21;;;;;;;6.07;4.63;;;20.10;99.90;;;;;;5005425;28;20419;-78
2022/06/27 06:38:50;;;;;;;5.05;4.45;;;20.20;99.90;;;;;;5016269;28;20450;-78
2022/06/27 06:41:18;;;;;;;9.63;4.82;;;20.20;99.90;;;;;;5001202;28;20047;-78
2022/06/27 06:43:48;;;;;;;4.47;3.78;;;20.20;99.90;;;;;;5003457;28;20054;-78
2022/06/27 06:46:15;;;;;;;5.60;4.05;;;20.30;99.90;;;;;;5003723;28;20156;-77
2022/06/27 06:48:42;;;;;;;7.53;4.57;;;20.30;99.90;;;;;;5001947;28;20054;-78
2022/06/27 06:51:16;;;;;;;5.50;4.53;;;20.40;99.90;;;;;;5005883;28;20046;-78
2022/06/27 06:53:45;;;;;;;4.40;3.95;;;20.40;99.90;;;;;;5003963;28;20557;-78
2022/06/27 06:56:12;;;;;;;10.50;4.90;;;20.50;99.90;;;;;;5006461;28;20136;-78
2022/06/27 06:58:38;;;;;;;4.65;4.13;;;20.50;99.90;;;;;;5002062;28;20073;-78
2022/06/27 07:01:06;;;;;;;5.15;3.95;;;20.60;99.90;;;;;;5003556;28;20053;-80
2022/06/27 07:03:33;;;;;;;5.70;3.72;;;20.70;99.90;;;;;;5008680;28;20050;-80
2022/06/27 07:06:01;;;;;;;5.78;3.78;;;20.70;99.90;;;;;;5007088;28;20054;-80
2022/06/27 07:08:30;;;;;;;4.30;3.40;;;20.60;99.90;;;;;;5011394;28;20431;-79
2022/06/27 07:10:58;;;;;;;5.30;3.15;;;20.50;99.90;;;;;;5010553;28;20054;-80
2022/06/27 07:13:25;;;;;;;4.97;3.55;;;20.50;99.90;;;;;;5008585;28;20462;-80
2022/06/27 07:15:51;;;;;;;5.22;3.00;;;20.50;99.90;;;;;;5006423;28;20053;-79
2022/06/27 07:18:18;;;;;;;3.55;2.50;;;20.40;99.90;;;;;;5010428;28;20085;-79
2022/06/27 07:20:45;;;;;;;3.17;2.35;;;20.40;99.90;;;;;;5010168;28;20065;-81
2022/06/27 07:23:12;;;;;;;2.92;2.20;;;20.40;99.90;;;;;;5006247;28;20082;-80
2022/06/27 07:25:39;;;;;;;3.78;1.92;;;20.30;99.90;;;;;;5007415;28;20052;-81
2022/06/27 07:28:07;;;;;;;4.22;1.90;;;20.30;99.90;;;;;;5008653;28;20058;-80
2022/06/27 07:30:35;;;;;;;2.72;1.30;;;20.30;99.90;;;;;;5009286;28;20081;-80
2022/06/27 07:33:02;;;;;;;3.15;1.60;;;20.20;99.90;;;;;;5010765;28;20046;-80
2022/06/27 07:35:29;;;;;;;5.95;1.45;;;20.20;99.90;;;;;;5008105;28;20050;-80
2022/06/27 07:37:55;;;;;;;1.90;1.02;;;20.30;99.90;;;;;;5018028;28;20052;-81
2022/06/27 07:40:24;;;;;;;2.83;1.40;;;20.30;99.90;;;;;;5008704;28;20050;-81
2022/06/27 07:42:52;;;;;;;2.15;1.40;;;20.30;99.90;;;;;;5015608;28;20045;-80
2022/06/27 07:45:22;;;;;;;6.17;1.03;;;20.30;99.90;;;;;;5010160;28;20538;-79
2022/06/27 07:47:51;;;;;;;2.83;1.15;;;20.10;99.90;;;;;;5013147;28;20074;-79
2022/06/27 07:53:12;;;;;;;2.65;1.20;;;20.10;99.90;;;;;;5015468;28;20057;-80
2022/06/27 07:55:49;;;;;;;4.90;1.17;;;20.10;99.90;;;;;;5018439;28;20149;-83
2022/06/27 07:58:17;;;;;;;3.08;1.20;;;20.10;99.90;;;;;;5019918;28;20076;-80
2022/06/27 08:00:48;;;;;;;1.88;1.05;;;20.20;99.90;;;;;;5016465;28;20046;-79
2022/06/27 08:06:05;;;;;;;1.77;1.30;;;20.40;99.90;;;;;;5015401;28;20053;-81
2022/06/27 08:08:33;;;;;;;2.30;0.68;;;20.50;99.90;;;;;;5015103;28;20101;-80
2022/06/27 08:11:01;;;;;;;1.45;0.77;;;20.50;99.90;;;;;;5020504;28;20046;-82
2022/06/27 08:13:28;;;;;;;3.53;1.00;;;20.50;99.90;;;;;;5021481;28;20042;-82
2022/06/27 08:15:55;;;;;;;2.22;0.70;;;20.60;99.90;;;;;;5016091;28;20124;-82
2022/06/27 08:18:23;;;;;;;1.13;0.70;;;20.60;99.90;;;;;;5013018;28;20054;-82
2022/06/27 08:20:50;;;;;;;1.83;0.65;;;20.60;99.90;;;;;;5017078;28;20108;-81
2022/06/27 08:23:18;;;;;;;1.33;0.60;;;20.60;99.90;;;;;;5015430;28;20045;-82
2022/06/27 08:25:46;;;;;;;2.03;0.80;;;20.60;99.90;;;;;;5016012;28;20050;-82
2022/06/27 08:28:15;;;;;;;2.38;0.50;;;20.70;99.90;;;;;;5020479;28;20400;-81
2022/06/27 08:30:43;;;;;;;1.85;0.70;;;20.70;99.90;;;;;;5014931;28;20109;-81
2022/06/27 08:33:12;;;;;;;0.80;0.43;;;20.80;99.90;;;;;;5016327;28;20050;-81
2022/06/27 08:35:39;;;;;;;0.50;0.50;;;20.70;99.90;;;;;;5030846;28;20049;-81
2022/06/27 08:38:06;;;;;;;0.47;0.47;;;20.80;99.90;;;;;;5028026;28;20057;-79
2022/06/27 08:40:33;;;;;;;3.38;0.65;;;20.80;99.90;;;;;;5016403;28;20046;-79
2022/06/27 08:43:01;;;;;;;0.68;0.57;;;20.90;99.90;;;;;;5013087;28;20129;-79
2022/06/27 08:45:28;;;;;;;2.40;0.47;;;20.90;99.90;;;;;;5011204;28;20052;-80
2022/06/27 08:47:59;;;;;;;0.52;0.43;;;21.00;99.90;;;;;;5009773;28;20101;-80
2022/06/27 08:50:26;;;;;;;1.00;0.63;;;21.10;99.90;;;;;;5011266;28;20687;-80
2022/06/27 08:52:54;;;;;;;0.47;0.40;;;21.30;99.90;;;;;;5015759;28;20054;-81
2022/06/27 08:55:21;;;;;;;1.30;0.38;;;21.40;99.90;;;;;;5015521;28;20069;-80
2022/06/27 08:57:47;;;;;;;1.25;0.50;;;21.60;99.90;;;;;;5015199;28;20065;-80
2022/06/27 09:00:15;;;;;;;1.70;0.30;;;21.60;99.90;;;;;;5014201;28;20051;-81
2022/06/27 09:02:42;;;;;;;0.40;0.38;;;21.70;99.90;;;;;;5014006;28;20050;-79
2022/06/27 09:05:24;;;;;;;0.98;0.65;;;21.80;99.90;;;;;;5015746;28;20121;-80
2022/06/27 09:07:56;;;;;;;1.45;0.40;;;22.00;99.90;;;;;;5014410;28;20069;-80
2022/06/27 09:10:26;;;;;;;1.48;0.77;;;22.00;99.90;;;;;;5013560;28;20046;-80
2022/06/27 09:12:56;;;;;;;0.47;0.32;;;22.20;99.90;;;;;;5015701;28;20064;-80
2022/06/27 09:15:46;;;;;;;0.93;0.65;;;22.20;99.90;;;;;;5011530;28;20074;-78
2022/06/27 09:18:16;;;;;;;0.90;0.90;;;22.20;99.90;;;;;;5020116;28;20385;-81
2022/06/27 09:20:50;;;;;;;1.65;0.40;;;22.40;99.90;;;;;;5013235;28;20050;-81
2022/06/27 09:23:38;;;;;;;1.35;0.40;;;22.40;99.90;;;;;;5014927;28;20153;-80
2022/06/27 09:26:16;;;;;;;1.15;0.50;;;22.40;99.90;;;;;;5013701;28;20046;-80
2022/06/27 09:28:45;;;;;;;1.85;0.50;;;22.50;99.90;;;;;;5013716;28;20118;-81
2022/06/27 09:31:28;;;;;;;1.13;0.57;;;22.50;99.90;;;;;;5016324;28;20081;-80
2022/06/27 09:34:12;;;;;;;3.42;0.55;;;22.40;99.90;;;;;;5015311;28;20046;-79
2022/06/27 09:36:45;;;;;;;0.60;0.40;;;22.40;99.90;;;;;;5012884;28;20055;-80
2022/06/27 09:39:29;;;;;;;1.25;0.80;;;22.50;99.90;;;;;;5013653;28;20149;-81
2022/06/27 09:42:02;;;;;;;1.13;0.57;;;22.70;99.90;;;;;;5013990;28;20065;-81
2022/06/27 09:44:35;;;;;;;0.80;0.50;;;22.70;99.90;;;;;;5014206;28;20057;-79
2022/06/27 09:47:25;;;;;;;3.15;0.60;;;22.70;99.90;;;;;;5015896;28;20056;-80
2022/06/27 09:49:56;;;;;;;;;;;22.60;99.90;;;;;;5014894;28;20060;-81
2022/06/27 09:52:24;;;;;;;1.23;0.70;;;22.70;99.90;;;;;;5014900;28;19921;-80
2022/06/27 09:54:53;;;;;;;0.70;0.60;;;22.70;99.90;;;;;;5012355;28;20046;-79
2022/06/27 09:57:21;;;;;;;0.60;0.60;;;22.80;99.90;;;;;;5020903;28;20419;-80
2022/06/27 09:59:50;;;;;;;1.60;0.68;;;22.80;99.90;;;;;;5012313;28;20052;-80
2022/06/27 10:02:22;;;;;;;0.75;0.45;;;22.80;99.90;;;;;;5020080;28;20074;-79
2022/06/27 10:04:51;;;;;;;0.85;0.50;;;22.90;99.90;;;;;;5014758;28;20603;-80
2022/06/27 10:07:19;;;;;;;1.17;0.60;;;22.90;99.90;;;;;;5016477;28;20081;-80
2022/06/27 10:09:53;;;;;;;0.68;0.50;;;22.80;99.90;;;;;;5015218;28;20060;-80
2022/06/27 10:12:28;;;;;;;0.50;0.45;;;22.90;99.90;;;;;;5015423;28;20106;-80
2022/06/27 10:15:10;;;;;;;0.93;0.40;;;22.70;99.90;;;;;;5011985;28;20048;-80
2022/06/27 10:17:52;;;;;;;2.47;0.55;;;22.80;99.90;;;;;;5011553;28;20050;-80
2022/06/27 10:20:40;;;;;;;0.88;0.50;;;23.00;99.90;;;;;;5010273;28;20141;-80
2022/06/27 10:23:06;;;;;;;0.60;0.60;;;23.00;99.90;;;;;;5009926;28;20054;-80
2022/06/27 10:25:34;;;;;;;2.40;0.57;;;23.20;99.90;;;;;;5014004;28;20053;-79
2022/06/27 10:28:07;;;;;;;0.50;0.50;;;23.30;99.90;;;;;;5028784;28;20050;-80
2022/06/27 10:30:43;;;;;;;0.75;0.65;;;23.50;99.90;;;;;;5013583;28;20499;-79
2022/06/27 10:33:22;;;;;;;1.10;0.47;;;23.70;99.90;;;;;;5039912;28;20128;-79
2022/06/27 10:35:55;;;;;;;0.57;0.57;;;23.90;99.90;;;;;;5022217;28;20523;-79
2022/06/27 10:38:21;;;;;;;0.30;0.30;;;23.90;99.90;;;;;;5018201;28;20054;-80
2022/06/27 10:40:52;;;;;;;0.80;0.50;;;24.00;99.90;;;;;;5018619;28;20056;-80
2022/06/27 10:43:39;;;;;;;0.55;0.47;;;24.00;99.90;;;;;;5021047;28;20085;-80
2022/06/27 10:46:11;;;;;;;0.98;0.60;;;24.20;99.90;;;;;;5013602;28;20046;-80
2022/06/27 10:48:40;;;;;;;0.60;0.50;;;24.30;99.90;;;;;;5028678;28;20752;-80
2022/06/27 10:51:26;;;;;;;0.52;0.50;;;24.40;99.90;;;;;;5017178;28;20088;-80
2022/06/27 10:53:59;;;;;;;0.70;0.70;;;24.40;99.90;;;;;;5029591;28;20047;-81
2022/06/27 10:56:30;;;;;;;0.73;0.70;;;24.50;99.90;;;;;;5016887;28;20130;-80
2022/06/27 10:58:57;;;;;;;0.50;0.50;;;24.60;99.90;;;;;;5015555;28;20050;-80
2022/06/27 11:01:24;;;;;;;2.05;0.55;;;24.60;99.90;;;;;;5014463;28;20064;-79
2022/06/27 11:03:51;;;;;;;1.60;0.60;;;24.60;99.90;;;;;;5014727;28;20050;-81
2022/06/27 11:06:19;;;;;;;0.43;0.40;;;24.70;99.90;;;;;;5017552;28;20053;-80
2022/06/27 11:08:48;;;;;;;0.55;0.50;;;24.60;99.90;;;;;;5013675;28;20140;-80
2022/06/27 11:11:25;;;;;;;0.45;0.40;;;24.60;99.90;;;;;;5015236;28;20050;-80
2022/06/27 11:13:53;;;;;;;;;;;24.70;99.90;;;;;;5013676;28;20071;-82
2022/06/27 11:16:33;;;;;;;1.23;0.50;;;24.80;99.90;;;;;;5016161;28;19960;-82
2022/06/27 11:21:52;;;;;;;2.65;0.60;;;25.00;99.90;;;;;;5018355;28;20060;-81
2022/06/27 11:24:19;;;;;;;1.35;0.73;;;25.00;99.90;;;;;;5015100;28;20054;-81
2022/06/27 11:26:47;;;;;;;2.63;0.60;;;25.00;99.90;;;;;;5017085;28;20053;-82
2022/06/27 11:32:11;;;;;;;2.88;1.70;;;25.10;99.90;;;;;;5015567;28;20042;-82
2022/06/27 11:34:41;;;;;;;0.65;0.40;;;25.20;99.90;;;;;;5013852;28;20081;-80
2022/06/27 11:37:23;;;;;;;2.10;0.60;;;25.20;99.90;;;;;;5014020;28;20125;-80
2022/06/27 11:39:58;;;;;;;1.65;0.60;;;25.20;99.90;;;;;;5019840;28;20289;-80
2022/06/27 11:42:29;;;;;;;1.98;0.68;;;25.20;99.90;;;;;;5013747;28;20056;-81
2022/06/27 11:45:06;;;;;;;0.73;0.60;;;25.20;99.90;;;;;;5015683;28;20133;-81
2022/06/27 11:47:34;;;;;;;1.17;0.60;;;25.20;99.90;;;;;;5016585;28;20117;-81
2022/06/27 11:50:06;;;;;;;2.22;0.60;;;25.20;99.90;;;;;;5012795;28;20050;-81
2022/06/27 11:52:42;;;;;;;0.88;0.65;;;25.20;99.90;;;;;;5013653;28;20043;-80
2022/06/27 11:55:14;;;;;;;1.92;0.60;;;25.30;99.90;;;;;;5014352;28;20108;-81
2022/06/27 11:57:54;;;;;;;2.25;0.60;;;25.30;99.90;;;;;;5017217;28;20124;-81
2022/06/27 12:00:23;;;;;;;1.67;0.70;;;25.30;99.90;;;;;;5013763;28;20077;-81
2022/06/27 12:03:04;;;;;;;1.05;0.47;;;25.40;99.90;;;;;;5012566;28;20130;-82
2022/06/27 12:05:31;;;;;;;0.90;0.50;;;25.40;99.90;;;;;;5013157;28;20133;-81
2022/06/27 12:08:06;;;;;;;0.90;0.50;;;25.50;99.90;;;;;;5015514;28;20080;-81
2022/06/27 12:13:41;;;;;;;0.70;0.50;;;25.80;99.90;;;;;;5018202;28;20069;-81
2022/06/27 12:16:10;;;;;;;0.50;0.43;;;26.00;99.90;;;;;;5013447;28;20054;-80
2022/06/27 12:18:43;;;;;;;0.87;0.50;;;26.00;99.90;;;;;;5014043;28;20049;-80
2022/06/27 12:21:10;;;;;;;0.30;0.30;;;26.10;99.90;;;;;;5012309;28;20286;-81
2022/06/27 12:23:38;;;;;;;1.23;0.40;;;26.10;99.90;;;;;;5019464;28;20060;-81
2022/06/27 12:26:05;;;;;;;0.40;0.40;;;26.20;99.90;;;;;;5015543;28;20050;-81
2022/06/27 12:28:32;;;;;;;0.30;0.30;;;26.20;99.90;;;;;;5019098;28;20052;-81
2022/06/27 12:30:59;;;;;;;2.10;0.40;;;26.20;99.90;;;;;;5017171;28;20053;-81
2022/06/27 12:33:25;;;;;;;1.90;0.50;;;26.20;99.90;;;;;;5018731;28;20073;-83
2022/06/27 12:35:52;;;;;;;0.60;0.40;;;26.30;99.90;;;;;;5018267;28;20081;-81
2022/06/27 12:38:19;;;;;;;0.70;0.38;;;26.40;99.90;;;;;;5017951;28;20109;-81
2022/06/27 12:40:46;;;;;;;0.60;0.32;;;26.30;99.90;;;;;;5034172;28;20046;-81
2022/06/27 12:43:13;;;;;;;1.85;0.60;;;26.40;99.90;;;;;;5018168;28;20563;-81
2022/06/27 12:45:40;;;;;;;0.73;0.50;;;26.40;99.90;;;;;;5019833;28;20065;-81
2022/06/27 12:48:09;;;;;;;0.80;0.52;;;26.40;99.90;;;;;;5017527;28;20104;-81
2022/06/27 12:50:36;;;;;;;1.10;0.40;;;26.40;99.90;;;;;;5018714;28;20470;-81
2022/06/27 12:53:03;;;;;;;2.35;0.40;;;26.50;99.90;;;;;;5017174;28;20042;-81
2022/06/27 12:55:30;;;;;;;1.10;0.40;;;26.50;99.90;;;;;;5019438;28;20053;-81
2022/06/27 12:57:57;;;;;;;0.60;0.57;;;26.60;99.90;;;;;;5018123;28;20046;-82
2022/06/27 13:00:24;;;;;;;1.25;0.68;;;26.70;99.90;;;;;;5019204;28;20080;-81
2022/06/27 13:02:51;;;;;;;0.50;0.50;;;26.80;99.90;;;;;;5020009;28;20088;-81
2022/06/27 13:05:25;;;;;;;0.50;0.32;;;26.90;99.90;;;;;;5024936;28;20053;-81
2022/06/27 13:07:52;;;;;;;0.32;0.32;;;26.90;99.90;;;;;;5020746;28;20045;-81
2022/06/27 13:10:19;;;;;;;1.00;0.50;;;26.90;99.90;;;;;;5015377;28;20050;-80
2022/06/27 13:12:46;;;;;;;0.40;0.40;;;26.90;99.90;;;;;;5021674;28;20046;-82
2022/06/27 13:15:14;;;;;;;0.30;0.30;;;26.80;99.90;;;;;;5019672;28;20074;-83